createdAt,value
2023-03-02T00:03:07.186Z,159.64
2023-03-02T00:28:06.664Z,162.74
2023-03-02T01:07:06.022Z,163.63
2023-03-02T01:08:05.959Z,163.57
2023-03-02T01:09:05.946Z,164.47
2023-03-02T01:10:05.953Z,163.12
2023-03-02T01:11:05.925Z,164.15
2023-03-02T01:12:05.904Z,162.43
2023-03-02T01:13:05.889Z,165.38
2023-03-02T01:14:05.845Z,163.61
2023-03-02T01:15:05.830Z,163.72
2023-03-02T01:16:05.871Z,166.67
2023-03-02T01:17:05.774Z,163.09
2023-03-02T01:18:05.761Z,163.78
2023-03-02T01:19:05.743Z,165.48
2023-03-02T01:20:05.734Z,166.77
2023-03-02T01:21:05.714Z,165.36
2023-03-02T01:22:05.693Z,163.87
2023-03-02T01:23:05.676Z,163.96
2023-03-02T01:24:05.678Z,164.26
2023-03-02T01:25:05.647Z,163.73
2023-03-02T01:26:05.615Z,163.72
2023-03-02T01:27:05.598Z,164.74
2023-03-02T01:28:05.570Z,163.22
2023-03-02T01:29:05.551Z,166.24
2023-03-02T01:30:05.542Z,165.27
2023-03-02T01:31:05.604Z,163.66
2023-03-02T01:32:05.517Z,162.46
2023-03-02T01:33:05.484Z,164.07
2023-03-02T01:34:05.454Z,163.09
2023-03-02T01:35:05.426Z,164.79
2023-03-02T01:36:05.417Z,164.38
2023-03-02T01:37:05.411Z,165.70
2023-03-02T01:38:05.450Z,164.71
2023-03-02T01:39:05.355Z,163.31
2023-03-02T01:40:05.322Z,161.81
2023-03-02T01:41:05.330Z,165.50
2023-03-02T01:42:05.294Z,166.81
2023-03-02T01:43:05.269Z,165.06
2023-03-02T01:44:05.229Z,162.97
2023-03-02T01:45:05.224Z,167.26
2023-03-02T01:46:05.279Z,166.84
2023-03-02T01:47:05.205Z,166.67
2023-03-02T01:48:05.163Z,167.75
2023-03-02T01:49:05.161Z,165.13
2023-03-02T01:50:05.122Z,165.72
2023-03-02T01:51:05.093Z,166.83
2023-03-02T01:52:05.088Z,164.57
2023-03-02T01:53:05.654Z,165.34
2023-03-02T01:54:05.058Z,166.86
2023-03-02T01:55:05.039Z,164.74
2023-03-02T01:56:05.013Z,165.56
2023-03-02T01:57:04.987Z,165.06
2023-03-02T01:58:04.957Z,166.45
2023-03-02T01:59:04.935Z,166.47
2023-03-02T02:00:04.925Z,166.76
2023-03-02T02:01:05.009Z,165.16
2023-03-02T02:02:04.909Z,168.14
2023-03-02T02:03:04.849Z,166.41
2023-03-02T02:04:04.848Z,165.86
2023-03-02T02:05:04.808Z,166.64
2023-03-02T02:06:04.833Z,168.01
2023-03-02T02:07:04.782Z,165.22
2023-03-02T02:08:04.790Z,164.47
2023-03-02T02:09:04.757Z,163.91
2023-03-02T02:10:04.727Z,167.07
2023-03-02T02:11:04.695Z,163.62
2023-03-02T02:12:04.689Z,167.23
2023-03-02T02:13:04.651Z,166.30
2023-03-02T02:14:04.681Z,166.23
2023-03-02T02:15:04.655Z,166.07
2023-03-02T02:16:04.618Z,164.78
2023-03-02T02:17:04.593Z,166.99
2023-03-02T02:18:04.574Z,166.12
2023-03-02T02:19:04.581Z,165.84
2023-03-02T02:20:04.526Z,167.54
2023-03-02T02:21:04.515Z,165.12
2023-03-02T02:22:04.509Z,167.65
2023-03-02T02:23:04.465Z,166.47
2023-03-02T02:24:04.486Z,166.16
2023-03-02T02:25:04.426Z,168.72
2023-03-02T02:26:04.417Z,164.61
2023-03-02T02:27:04.406Z,165.91
2023-03-02T02:28:04.373Z,164.56
2023-03-02T02:29:04.358Z,167.36
2023-03-02T02:30:04.345Z,165.52
2023-03-02T02:31:04.318Z,166.13
2023-03-02T02:32:04.515Z,167.50
2023-03-02T02:33:04.327Z,163.93
2023-03-02T02:34:04.264Z,167.86
2023-03-02T02:35:04.236Z,164.56
2023-03-02T02:36:04.266Z,165.22
2023-03-02T02:37:04.192Z,165.32
2023-03-02T02:38:04.153Z,165.38
2023-03-02T02:39:04.125Z,168.17
2023-03-02T02:40:04.140Z,163.21
2023-03-02T02:41:04.103Z,165.89
2023-03-02T02:42:04.054Z,166.52
2023-03-02T02:43:04.059Z,164.37
2023-03-02T02:44:04.022Z,163.59
2023-03-02T02:45:04.023Z,164.73
2023-03-02T02:46:04.020Z,165.26
2023-03-02T02:47:03.973Z,167.86
2023-03-02T02:48:03.961Z,161.76
2023-03-02T02:49:03.926Z,164.65
2023-03-02T02:50:03.895Z,164.07
2023-03-02T02:51:03.868Z,165.59
2023-03-02T02:52:03.843Z,163.26
2023-03-02T02:53:03.850Z,164.32
2023-03-02T02:54:03.847Z,164.19
2023-03-02T02:55:03.784Z,164.20
2023-03-02T02:56:03.782Z,163.84
2023-03-02T02:57:03.794Z,164.37
2023-03-02T02:58:03.741Z,163.29
2023-03-02T02:59:03.703Z,164.50
2023-03-02T03:00:03.736Z,164.19
2023-03-02T03:01:03.716Z,165.81
2023-03-02T03:02:03.662Z,162.80
2023-03-02T03:03:03.640Z,163.59
2023-03-02T03:04:03.617Z,163.60
2023-03-02T03:05:03.633Z,166.16
2023-03-02T03:06:03.595Z,162.49
2023-03-02T03:07:03.595Z,164.49
2023-03-02T03:08:03.557Z,165.43
2023-03-02T03:09:03.504Z,165.49
2023-03-02T03:10:03.532Z,163.19
2023-03-02T03:11:03.460Z,165.23
2023-03-02T03:12:03.482Z,165.51
2023-03-02T03:13:03.427Z,166.05
2023-03-02T03:14:03.431Z,165.49
2023-03-02T03:15:03.399Z,166.00
2023-03-02T03:16:03.345Z,165.48
2023-03-02T03:17:03.395Z,166.20
2023-03-02T03:18:03.312Z,165.69
2023-03-02T03:19:03.320Z,167.65
2023-03-02T03:20:03.288Z,165.24
2023-03-02T03:21:03.251Z,163.32
2023-03-02T03:22:03.242Z,169.74
2023-03-02T03:23:03.215Z,169.07
2023-03-02T03:24:03.199Z,167.23
2023-03-02T03:25:03.176Z,163.07
2023-03-02T03:26:03.156Z,167.94
2023-03-02T03:27:03.125Z,165.75
2023-03-02T03:28:03.119Z,167.70
2023-03-02T03:29:03.087Z,169.01
2023-03-02T03:30:03.075Z,165.31
2023-03-02T03:31:03.179Z,167.17
2023-03-02T03:32:03.079Z,167.05
2023-03-02T03:33:03.006Z,168.64
2023-03-02T03:34:03.005Z,167.06
2023-03-02T03:35:02.995Z,164.44
2023-03-02T03:36:02.985Z,167.07
2023-03-02T03:37:02.945Z,168.19
2023-03-02T03:38:02.925Z,167.45
2023-03-02T03:39:02.891Z,167.93
2023-03-02T03:40:02.901Z,167.59
2023-03-02T03:41:02.864Z,170.41
2023-03-02T03:42:02.850Z,165.21
2023-03-02T03:43:02.815Z,169.50
2023-03-02T03:44:02.918Z,166.98
2023-03-02T03:45:02.783Z,170.33
2023-03-02T03:46:02.754Z,165.78
2023-03-02T03:47:02.741Z,165.60
2023-03-02T03:48:02.716Z,168.51
2023-03-02T03:49:02.680Z,168.10
2023-03-02T03:50:02.672Z,166.94
2023-03-02T03:51:02.639Z,170.26
2023-03-02T03:52:02.632Z,168.86
2023-03-02T03:53:03.888Z,170.53
2023-03-02T03:54:02.617Z,170.14
2023-03-02T03:55:03.528Z,169.24
2023-03-02T03:56:02.571Z,169.83
2023-03-02T03:57:02.537Z,168.21
2023-03-02T03:58:02.549Z,170.85
2023-03-02T03:59:02.504Z,170.08
2023-03-02T04:00:02.476Z,169.47
2023-03-02T04:01:02.454Z,169.87
2023-03-02T04:02:02.431Z,168.75
2023-03-02T04:03:02.425Z,167.72
2023-03-02T04:04:02.414Z,171.33
2023-03-02T04:05:02.406Z,171.01
2023-03-02T04:06:02.361Z,170.74
2023-03-02T04:07:02.350Z,171.32
2023-03-02T04:41:01.843Z,174.89
2023-03-02T05:01:01.537Z,179.65
2023-03-02T05:02:01.581Z,176.92
2023-03-02T05:03:01.518Z,178.91
2023-03-02T05:04:03.022Z,177.86
2023-03-02T05:05:01.500Z,178.55
2023-03-02T05:06:01.510Z,179.68
2023-03-02T05:07:01.444Z,177.71
2023-03-02T05:08:01.451Z,177.90
2023-03-02T05:09:01.410Z,178.24
2023-03-02T05:10:01.424Z,177.98
2023-03-02T05:11:01.409Z,178.43
2023-03-02T05:12:01.398Z,180.40
2023-03-02T05:13:01.339Z,178.47
2023-03-02T05:15:01.297Z,177.99
2023-03-02T05:16:01.344Z,179.78
2023-03-02T05:18:01.271Z,177.35
2023-03-02T05:41:00.866Z,180.34
2023-03-02T05:42:00.822Z,180.62
2023-03-02T06:37:59.979Z,186.89
2023-03-02T06:38:59.843Z,171.95
2023-03-02T06:39:59.835Z,171.35
2023-03-02T06:40:59.790Z,170.67
2023-03-02T06:41:59.753Z,170.29
2023-03-02T06:42:59.768Z,168.09
2023-03-02T06:43:59.726Z,170.97
2023-03-02T06:44:59.697Z,163.92
2023-03-02T06:45:59.721Z,164.20
2023-03-02T06:46:59.647Z,153.34
2023-03-02T06:47:59.722Z,146.40
2023-03-02T06:48:59.633Z,149.17
2023-03-02T06:49:59.661Z,144.79
2023-03-02T06:50:59.583Z,137.87
2023-03-02T06:51:59.529Z,124.31
2023-03-02T06:52:59.539Z,106.55
2023-03-02T06:53:59.490Z,111.32
2023-03-02T06:54:59.440Z,109.97
2023-03-02T06:55:59.444Z,97.13
2023-03-02T06:56:59.401Z,98.59
2023-03-02T06:57:59.441Z,89.19
2023-03-02T06:58:59.356Z,78.37
2023-03-02T06:59:59.368Z,66.85
2023-03-02T07:00:59.782Z,59.05
2023-03-02T07:01:59.284Z,63.91
2023-03-02T07:02:59.441Z,56.66
2023-03-02T07:03:59.309Z,52.56
2023-03-02T07:04:59.254Z,52.59
2023-03-02T07:05:59.214Z,49.94
2023-03-02T07:06:59.177Z,43.27
2023-03-02T07:07:59.168Z,34.57
2023-03-02T07:08:59.128Z,32.93
2023-03-02T07:09:59.113Z,44.51
2023-03-02T07:10:59.736Z,48.94
2023-03-02T07:15:02.692Z,53.42
2023-03-02T07:16:59.139Z,53.54
2023-03-02T07:17:59.293Z,62.10
2023-03-02T07:18:59.056Z,73.16
2023-03-02T07:19:58.855Z,89.12
2023-03-02T07:20:59.939Z,106.55
2023-03-02T07:22:00.136Z,107.15
2023-03-02T07:23:58.725Z,110.51
2023-03-02T07:24:58.665Z,111.11
2023-03-02T07:25:58.613Z,116.52
2023-03-02T07:26:58.583Z,121.37
2023-03-02T07:27:58.588Z,119.07
2023-03-02T07:28:58.520Z,130.05
2023-03-02T07:29:58.503Z,128.18
2023-03-02T07:30:58.504Z,122.89
2023-03-02T07:31:58.446Z,127.94
2023-03-02T07:32:58.413Z,123.52
2023-03-02T07:33:58.355Z,138.95
2023-03-02T07:34:58.328Z,139.69
2023-03-02T07:35:58.326Z,135.66
2023-03-02T07:36:58.273Z,145.03
2023-03-02T07:37:58.269Z,143.11
2023-03-02T07:38:58.243Z,134.09
2023-03-02T07:40:00.624Z,140.04
2023-03-02T07:40:58.143Z,143.52
2023-03-02T07:41:58.148Z,142.62
2023-03-02T07:42:58.104Z,143.32
2023-03-02T07:43:58.118Z,124.87
2023-03-02T07:44:58.093Z,99.43
2023-03-02T07:45:59.542Z,86.16
2023-03-02T07:46:58.087Z,86.70
2023-03-02T07:47:58.064Z,88.81
2023-03-02T07:48:58.124Z,93.96
2023-03-02T07:49:57.956Z,105.11
2023-03-02T07:50:57.917Z,117.36
2023-03-02T07:51:57.884Z,117.58
2023-03-02T07:52:59.893Z,123.69
2023-03-02T07:53:57.880Z,123.96
2023-03-02T07:54:57.823Z,125.33
2023-03-02T07:55:57.778Z,128.25
2023-03-02T07:56:57.742Z,135.99
2023-03-02T07:57:57.734Z,146.88
2023-03-02T07:58:57.702Z,151.28
2023-03-02T07:59:57.656Z,151.40
2023-03-02T08:00:57.621Z,152.54
2023-03-02T08:01:57.686Z,153.81
2023-03-02T08:02:58.028Z,153.29
2023-03-02T08:03:57.537Z,167.12
2023-03-02T08:04:57.497Z,165.50
2023-03-02T08:05:57.461Z,170.13
2023-03-02T08:06:57.449Z,172.27
2023-03-02T08:07:57.403Z,174.65
2023-03-02T08:08:57.345Z,177.95
2023-03-02T08:09:57.488Z,174.79
2023-03-02T08:10:57.383Z,177.55
2023-03-02T08:11:57.239Z,180.49
2023-03-02T08:12:57.301Z,176.13
2023-03-02T08:13:57.295Z,174.43
2023-03-02T08:14:57.137Z,179.54
2023-03-02T08:15:57.149Z,180.40
2023-03-02T08:16:57.052Z,174.66
2023-03-02T08:17:57.029Z,175.23
2023-03-02T08:18:59.662Z,179.56
2023-03-02T08:20:00.265Z,173.79
2023-03-02T08:20:56.927Z,173.98
2023-03-02T08:21:56.934Z,175.07
2023-03-02T08:22:56.828Z,176.86
2023-03-02T08:23:56.825Z,181.27
2023-03-02T08:24:56.804Z,185.49
2023-03-02T08:25:56.978Z,185.16
2023-03-02T08:26:56.691Z,191.10
2023-03-02T08:27:56.650Z,185.56
2023-03-02T08:28:57.039Z,186.35
2023-03-02T08:29:56.575Z,182.34
2023-03-02T08:30:56.661Z,184.06
2023-03-02T08:31:56.540Z,181.73
2023-03-02T08:32:56.449Z,179.74
2023-03-02T08:33:56.403Z,182.73
2023-03-02T08:34:56.775Z,181.11
2023-03-02T08:35:57.095Z,181.45
2023-03-02T08:36:56.288Z,168.70
2023-03-02T08:37:56.249Z,167.15
2023-03-02T08:38:56.223Z,168.90
2023-03-02T08:39:58.421Z,170.19
2023-03-02T08:40:56.222Z,174.37
2023-03-02T08:41:56.187Z,185.54
2023-03-02T08:42:56.185Z,209.74
2023-03-02T08:43:56.135Z,218.58
2023-03-02T08:44:56.098Z,221.10
2023-03-02T08:45:56.127Z,225.84
2023-03-02T08:46:56.047Z,226.15
2023-03-02T08:47:56.160Z,227.46
2023-03-02T08:48:56.638Z,231.11
2023-03-02T08:49:55.887Z,239.30
2023-03-02T08:50:55.868Z,253.02
2023-03-02T08:51:55.825Z,250.00
2023-03-02T08:52:55.785Z,245.34
2023-03-02T08:53:55.760Z,242.62
2023-03-02T08:54:55.782Z,241.24
2023-03-02T08:55:55.660Z,237.34
2023-03-02T08:56:55.616Z,230.23
2023-03-02T08:57:55.568Z,236.88
2023-03-02T08:58:55.549Z,241.13
2023-03-02T08:59:55.485Z,248.66
2023-03-02T09:00:55.446Z,249.13
2023-03-02T09:01:55.390Z,248.79
2023-03-02T09:02:55.381Z,245.95
2023-03-02T09:03:55.342Z,242.98
2023-03-02T09:04:55.322Z,243.52
2023-03-02T09:05:55.260Z,250.00
2023-03-02T09:06:55.208Z,246.14
2023-03-02T09:07:55.176Z,249.70
2023-03-02T09:08:55.144Z,249.80
2023-03-02T09:09:55.126Z,248.34
2023-03-02T09:10:55.265Z,247.94
2023-03-02T09:11:55.079Z,241.96
2023-03-02T09:12:54.977Z,244.29
2023-03-02T09:13:54.953Z,247.50
2023-03-02T09:14:54.882Z,244.12
2023-03-02T09:15:54.864Z,241.52
2023-03-02T09:16:54.865Z,237.32
2023-03-02T09:31:38.837Z,36.71
2023-03-02T09:32:38.334Z,25.00
2023-03-02T09:33:38.203Z,30.01
2023-03-02T09:34:38.174Z,33.33
2023-03-02T09:35:38.180Z,23.22
2023-03-02T09:36:38.179Z,25.00
2023-03-02T09:37:38.182Z,23.56
2023-03-02T09:38:38.090Z,25.88
2023-03-02T09:39:38.055Z,25.00
2023-03-02T09:40:38.067Z,25.00
2023-03-02T09:41:38.033Z,25.00
2023-03-02T09:42:43.814Z,29.87
2023-03-02T09:43:38.988Z,30.34
2023-03-02T09:44:37.974Z,30.66
2023-03-02T09:45:38.102Z,31.25
2023-03-02T09:46:37.923Z,18.20
2023-03-02T09:47:37.913Z,17.48
2023-03-02T09:48:37.901Z,22.32
2023-03-02T09:49:38.037Z,27.16
2023-03-02T09:50:37.928Z,25.28
2023-03-02T09:51:37.858Z,37.84
2023-03-02T09:52:37.836Z,37.86
2023-03-02T09:53:37.817Z,33.64
2023-03-02T09:54:37.905Z,37.94
2023-03-02T09:55:37.790Z,33.49
2023-03-02T09:56:37.761Z,31.68
2023-03-02T09:57:37.747Z,28.30
2023-03-02T09:58:37.722Z,29.58
2023-03-02T09:59:37.673Z,34.99
2023-03-02T10:00:37.680Z,52.98
2023-03-02T10:01:37.664Z,63.49
2023-03-02T10:02:37.640Z,70.39
2023-03-02T10:03:37.735Z,72.02
2023-03-02T10:04:37.655Z,73.93
2023-03-02T10:05:37.592Z,69.20
2023-03-02T10:06:37.534Z,67.22
2023-03-02T10:07:37.509Z,70.71
2023-03-02T10:08:37.521Z,67.41
2023-03-02T10:09:37.519Z,64.97
2023-03-02T10:10:37.461Z,66.40
2023-03-02T10:11:37.439Z,64.76
2023-03-02T10:12:37.408Z,69.95
2023-03-02T10:13:37.418Z,72.31
2023-03-02T10:14:37.382Z,72.90
2023-03-02T10:15:37.470Z,69.58
2023-03-02T10:16:37.648Z,69.12
2023-03-02T10:17:37.309Z,70.54
2023-03-02T10:18:37.354Z,66.64
2023-03-02T10:19:37.272Z,62.75
2023-03-02T10:20:37.226Z,60.99
2023-03-02T10:21:37.299Z,57.87
2023-03-02T10:22:37.197Z,58.21
2023-03-02T10:23:37.216Z,59.59
2023-03-02T10:24:37.160Z,60.55
2023-03-02T10:25:37.154Z,61.68
2023-03-02T10:26:37.152Z,57.97
2023-03-02T10:27:37.113Z,58.14
2023-03-02T10:28:37.059Z,57.52
2023-03-02T10:29:37.078Z,63.99
2023-03-02T10:30:37.084Z,61.15
2023-03-02T10:31:37.040Z,62.98
2023-03-02T10:32:37.089Z,62.22
2023-03-02T10:33:36.967Z,63.19
2023-03-02T10:34:36.960Z,59.42
2023-03-02T10:35:36.931Z,65.22
2023-03-02T10:36:37.292Z,59.83
2023-03-02T10:37:36.952Z,58.08
2023-03-02T10:38:36.831Z,55.37
2023-03-02T10:39:36.857Z,55.65
2023-03-02T10:40:36.798Z,56.48
2023-03-02T10:41:38.943Z,56.86
2023-03-02T10:42:36.831Z,41.84
2023-03-02T10:43:36.763Z,41.14
2023-03-02T10:44:36.727Z,35.23
2023-03-02T10:45:36.730Z,39.19
2023-03-02T10:46:36.901Z,30.75
2023-03-02T10:47:36.694Z,27.81
2023-03-02T10:48:40.927Z,25.00
2023-03-02T10:49:36.645Z,25.18
2023-03-02T10:50:36.608Z,17.11
2023-03-02T10:51:36.580Z,23.16
2023-03-02T10:52:36.558Z,21.74
2023-03-02T10:53:36.508Z,23.31
2023-03-02T10:54:36.503Z,27.22
2023-03-02T10:55:36.484Z,31.36
2023-03-02T10:56:36.487Z,33.22
2023-03-02T10:57:36.413Z,34.17
2023-03-02T10:58:36.395Z,33.81
2023-03-02T10:59:36.372Z,35.34
2023-03-02T11:00:36.333Z,44.08
2023-03-02T11:01:36.414Z,46.66
2023-03-02T11:02:36.314Z,38.48
2023-03-02T11:03:36.276Z,49.05
2023-03-02T11:04:36.351Z,51.96
2023-03-02T11:05:36.315Z,53.83
2023-03-02T11:06:36.202Z,51.19
2023-03-02T11:07:36.238Z,47.32
2023-03-02T11:08:36.145Z,58.97
2023-03-02T11:09:36.337Z,65.00
2023-03-02T11:10:36.097Z,68.62
2023-03-02T11:11:36.715Z,77.94
2023-03-02T11:12:36.086Z,83.31
2023-03-02T11:13:36.069Z,84.76
2023-03-02T11:14:35.998Z,89.01
2023-03-02T11:15:36.125Z,90.75
2023-03-02T11:16:37.550Z,96.33
2023-03-02T11:17:39.588Z,100.62
2023-03-02T11:18:35.918Z,100.89
2023-03-02T11:19:35.933Z,102.64
2023-03-02T11:20:35.868Z,105.15
2023-03-02T11:21:37.411Z,110.60
2023-03-02T11:22:36.346Z,122.32
2023-03-02T11:23:35.784Z,116.87
2023-03-02T11:24:36.113Z,117.09
2023-03-02T11:25:35.757Z,122.73
2023-03-02T11:26:35.762Z,116.78
2023-03-02T11:27:39.624Z,122.69
2023-03-02T11:28:39.348Z,122.90
2023-03-02T11:29:35.696Z,122.91
2023-03-02T11:30:41.740Z,124.13
2023-03-02T11:31:36.021Z,97.17
2023-03-02T11:32:35.671Z,2.35
2023-03-02T11:33:36.227Z,0.00
2023-03-02T11:34:35.518Z,0.00
2023-03-02T11:35:35.677Z,0.00
2023-03-02T11:36:35.480Z,0.00
2023-03-02T11:37:35.462Z,0.00
2023-03-02T11:38:35.434Z,25.00
2023-03-02T11:39:37.424Z,49.03
2023-03-02T11:40:35.452Z,49.79
2023-03-02T11:41:35.600Z,54.82
2023-03-02T11:42:35.519Z,65.73
2023-03-02T11:43:35.393Z,85.45
2023-03-02T11:44:35.381Z,116.88
2023-03-02T11:45:35.337Z,115.89
2023-03-02T11:46:35.362Z,115.01
2023-03-02T11:47:35.721Z,117.21
2023-03-02T11:48:35.245Z,125.32
2023-03-02T11:49:35.211Z,125.16
2023-03-02T11:50:35.310Z,132.79
2023-03-02T11:51:35.549Z,140.16
2023-03-02T11:52:38.441Z,139.31
2023-03-02T11:53:35.134Z,140.00
2023-03-02T11:54:35.065Z,142.13
2023-03-02T11:55:35.031Z,146.71
2023-03-02T11:56:35.181Z,158.79
2023-03-02T11:57:34.966Z,166.34
2023-03-02T11:58:34.937Z,167.35
2023-03-02T11:59:34.907Z,176.75
2023-03-02T12:00:35.080Z,185.62
2023-03-02T12:01:35.359Z,191.35
2023-03-02T12:02:34.781Z,193.77
2023-03-02T12:03:34.758Z,201.33
2023-03-02T12:04:35.551Z,209.95
2023-03-02T12:05:35.525Z,215.78
2023-03-02T12:06:35.141Z,218.16
2023-03-02T12:07:36.243Z,220.60
2023-03-02T12:08:34.979Z,229.72
2023-03-02T12:09:40.239Z,234.13
2023-03-02T12:10:48.015Z,234.42
2023-03-02T12:11:43.310Z,235.13
2023-03-02T12:12:37.477Z,235.54
2023-03-02T12:13:41.022Z,235.09
2023-03-02T12:14:34.786Z,234.68
2023-03-02T12:15:34.886Z,206.91
2023-03-02T12:16:35.406Z,176.99
2023-03-02T12:17:36.363Z,155.94
2023-03-02T12:18:35.189Z,134.37
2023-03-02T12:19:37.139Z,93.78
2023-03-02T12:20:40.675Z,72.57
2023-03-02T12:21:34.541Z,52.60
2023-03-02T12:22:36.651Z,23.60
2023-03-02T12:23:37.052Z,1.57
2023-03-02T12:24:35.150Z,0.00
2023-03-02T12:25:34.316Z,0.00
2023-03-02T12:26:34.701Z,0.00
2023-03-02T12:27:34.376Z,0.00
2023-03-02T12:28:34.280Z,4.39
2023-03-02T12:29:34.255Z,40.35
2023-03-02T12:30:34.216Z,59.34
2023-03-02T12:31:34.265Z,72.93
2023-03-02T12:32:34.199Z,79.47
2023-03-02T12:33:34.136Z,89.40
2023-03-02T12:34:34.088Z,98.36
2023-03-02T12:35:34.080Z,105.28
2023-03-02T12:36:34.316Z,115.75
2023-03-02T12:37:34.009Z,119.82
2023-03-02T12:38:34.055Z,126.40
2023-03-02T12:39:33.986Z,130.26
2023-03-02T12:40:33.921Z,140.80
2023-03-02T12:41:33.897Z,144.89
2023-03-02T12:42:33.887Z,144.71
2023-03-02T12:43:33.854Z,152.38
2023-03-02T12:44:33.846Z,158.17
2023-03-02T12:45:33.799Z,163.78
2023-03-02T12:46:34.051Z,152.22
2023-03-02T12:47:33.852Z,152.55
2023-03-02T12:48:33.708Z,157.96
2023-03-02T12:49:33.696Z,165.26
2023-03-02T12:50:33.664Z,175.20
2023-03-02T12:51:33.711Z,175.27
2023-03-02T12:52:33.670Z,177.48
2023-03-02T12:53:33.554Z,180.65
2023-03-02T12:54:33.559Z,175.64
2023-03-02T12:55:33.516Z,185.88
2023-03-02T12:56:33.939Z,184.17
2023-03-02T12:57:33.471Z,184.25
2023-03-02T12:58:33.436Z,180.91
2023-03-02T12:59:33.439Z,191.86
2023-03-02T13:00:33.392Z,191.42
2023-03-02T13:01:33.341Z,185.62
2023-03-02T13:02:33.364Z,192.96
2023-03-02T13:03:33.285Z,202.81
2023-03-02T13:04:33.296Z,170.97
2023-03-02T13:05:33.268Z,171.55
2023-03-02T13:06:33.587Z,165.74
2023-03-02T13:07:33.236Z,169.78
2023-03-02T13:08:33.228Z,172.29
2023-03-02T13:09:33.168Z,188.67
2023-03-02T13:10:33.126Z,204.20
2023-03-02T13:11:33.073Z,207.61
2023-03-02T13:12:33.054Z,217.18
2023-03-02T13:13:33.098Z,222.94
2023-03-02T13:14:33.037Z,229.63
2023-03-02T13:15:32.996Z,229.88
2023-03-02T13:16:33.579Z,231.92
2023-03-02T13:17:32.967Z,230.09
2023-03-02T13:18:32.887Z,232.74
2023-03-02T13:19:32.874Z,237.77
2023-03-02T13:20:32.840Z,241.65
2023-03-02T13:21:32.807Z,240.72
2023-03-02T13:22:32.805Z,242.20
2023-03-02T13:23:32.726Z,250.00
2023-03-02T13:24:32.718Z,247.29
2023-03-02T13:25:32.668Z,246.03
2023-03-02T13:26:33.003Z,249.54
2023-03-02T13:27:32.661Z,249.95
2023-03-02T13:28:32.580Z,245.36
2023-03-02T13:29:34.323Z,247.75
2023-03-02T13:30:32.651Z,246.65
2023-03-02T13:31:32.570Z,240.67
2023-03-02T13:32:32.597Z,240.94
2023-03-02T13:33:32.474Z,235.74
2023-03-02T13:34:32.432Z,236.45
2023-03-02T13:35:32.402Z,233.06
2023-03-02T13:36:32.701Z,234.33
2023-03-02T14:44:30.515Z,246.93
2023-03-02T14:45:30.917Z,247.00
2023-03-02T14:46:30.512Z,245.23
2023-03-02T14:47:30.404Z,244.95
2023-03-02T14:48:30.429Z,244.57
2023-03-02T14:49:30.394Z,249.57
2023-03-02T14:50:30.356Z,245.69
2023-03-02T14:51:30.539Z,246.05
2023-03-02T14:52:30.313Z,249.68
2023-03-02T14:53:30.316Z,248.88
2023-03-02T14:54:30.336Z,247.37
2023-03-02T14:55:30.274Z,246.53
2023-03-02T14:56:30.265Z,242.34
2023-03-02T14:57:30.238Z,245.33
2023-03-02T14:58:30.188Z,246.34
2023-03-02T14:59:30.169Z,248.57
2023-03-02T15:00:30.165Z,243.22
2023-03-02T15:01:30.273Z,245.66
2023-03-02T15:02:30.179Z,244.82
2023-03-02T15:03:30.155Z,243.01
2023-03-02T15:04:30.092Z,249.26
2023-03-02T15:05:30.062Z,242.90
2023-03-02T15:06:30.068Z,246.31
2023-03-02T15:07:30.015Z,246.05
2023-03-02T15:08:30.008Z,244.33
2023-03-02T15:09:29.985Z,244.62
2023-03-02T15:10:29.994Z,245.70
2023-03-02T15:12:29.931Z,241.01
2023-03-02T15:13:29.880Z,241.56
2023-03-02T15:14:29.885Z,242.93
2023-03-02T15:15:29.858Z,246.47
2023-03-02T15:16:29.897Z,249.05
2023-03-02T15:17:29.843Z,245.26
2023-03-02T15:18:29.833Z,243.92
2023-03-02T15:19:29.782Z,240.55
2023-03-02T15:20:29.789Z,245.49
2023-03-02T15:21:29.738Z,241.34
2023-03-02T15:22:29.738Z,242.76
2023-03-02T15:23:29.710Z,244.30
2023-03-02T15:24:32.073Z,242.43
2023-03-02T15:25:29.679Z,242.51
2023-03-02T15:26:29.682Z,243.00
2023-03-02T15:27:29.670Z,243.22
2023-03-02T15:28:29.623Z,246.39
2023-03-02T15:29:29.604Z,248.67
2023-03-02T15:30:29.599Z,246.78
2023-03-02T15:31:29.640Z,247.22
2023-03-02T15:32:29.607Z,245.53
2023-03-02T15:33:29.548Z,243.33
2023-03-02T15:34:29.538Z,243.80
2023-03-02T15:35:29.747Z,243.15
2023-03-02T15:36:29.494Z,245.63
2023-03-02T15:37:29.521Z,243.47
2023-03-02T15:38:29.459Z,244.48
2023-03-02T15:39:29.443Z,243.06
2023-03-02T15:40:29.443Z,245.00
2023-03-02T15:41:29.415Z,245.63
2023-03-02T15:42:29.429Z,245.90
2023-03-02T15:43:29.388Z,246.09
2023-03-02T15:44:29.377Z,244.52
2023-03-02T15:45:29.383Z,244.09
2023-03-02T15:46:29.399Z,244.96
2023-03-02T15:47:29.375Z,242.01
2023-03-02T15:48:29.346Z,243.87
2023-03-02T15:49:29.403Z,242.10
2023-03-02T15:50:29.314Z,247.35
2023-03-02T15:51:29.309Z,244.58
2023-03-02T15:52:29.362Z,244.15
2023-03-02T15:53:29.285Z,245.54
2023-03-02T15:54:29.289Z,241.62
2023-03-02T15:55:29.257Z,244.25
2023-03-02T15:56:38.827Z,243.40
2023-03-02T15:57:30.260Z,243.85
2023-03-02T15:58:29.223Z,244.36
2023-03-02T15:59:29.200Z,245.86
2023-03-02T16:00:29.204Z,245.99
2023-03-02T16:01:29.205Z,243.30
2023-03-02T16:02:29.171Z,248.40
2023-03-02T16:03:29.148Z,242.69
2023-03-02T16:04:29.129Z,244.79
2023-03-02T16:05:29.129Z,246.68
2023-03-02T16:06:29.125Z,239.79
2023-03-02T16:07:29.088Z,246.64
2023-03-02T16:08:29.109Z,246.30
2023-03-02T16:09:29.076Z,242.25
2023-03-02T16:10:29.046Z,245.28
2023-03-02T16:11:29.043Z,246.17
2023-03-02T16:12:29.026Z,242.52
2023-03-02T16:13:29.029Z,242.88
2023-03-02T16:14:29.005Z,241.24
2023-03-02T16:15:28.992Z,242.54
2023-03-02T16:16:29.029Z,240.07
2023-03-02T16:17:28.993Z,244.78
2023-03-02T16:18:28.965Z,240.14
2023-03-02T16:19:28.956Z,242.90
2023-03-02T16:20:28.937Z,243.58
2023-03-02T16:21:28.969Z,244.79
2023-03-02T16:22:28.912Z,246.12
2023-03-02T16:23:28.909Z,241.70
2023-03-02T16:24:28.877Z,245.58
2023-03-02T16:25:28.870Z,240.69
2023-03-02T16:26:28.853Z,243.43
2023-03-02T16:27:28.837Z,240.75
2023-03-02T16:28:28.842Z,241.37
2023-03-02T16:29:28.809Z,242.28
2023-03-02T16:30:28.809Z,242.87
2023-03-02T16:31:28.827Z,236.33
2023-03-02T16:32:28.794Z,238.94
2023-03-02T16:33:28.790Z,240.10
2023-03-02T16:34:28.762Z,241.20
2023-03-02T16:35:28.755Z,241.27
2023-03-02T16:36:28.765Z,240.78
2023-03-02T16:37:28.756Z,243.28
2023-03-02T16:38:28.737Z,243.04
2023-03-02T16:39:28.703Z,238.86
2023-03-02T16:40:28.709Z,242.42
2023-03-02T16:41:28.712Z,242.37
2023-03-02T16:42:28.678Z,240.41
2023-03-02T16:43:28.680Z,238.84
2023-03-02T16:44:28.655Z,241.06
2023-03-02T16:45:28.649Z,242.95
2023-03-02T16:46:28.624Z,238.32
2023-03-02T16:47:28.680Z,241.88
2023-03-02T16:48:28.630Z,242.97
2023-03-02T16:49:28.597Z,240.48
2023-03-02T16:50:28.606Z,242.36
2023-03-02T16:51:28.563Z,242.69
2023-03-02T16:52:28.578Z,242.21
2023-03-02T16:53:28.574Z,242.00
2023-03-02T16:54:28.556Z,248.00
2023-03-02T16:55:28.517Z,245.59
2023-03-02T16:56:28.506Z,245.99
2023-03-02T16:57:28.521Z,238.76
2023-03-02T16:58:28.484Z,244.28
2023-03-02T16:59:28.475Z,246.98
2023-03-02T17:00:28.526Z,242.66
2023-03-02T17:01:28.500Z,243.32
2023-03-02T17:02:28.451Z,244.48
2023-03-02T17:03:28.421Z,243.31
2023-03-02T17:04:28.548Z,246.15
2023-03-02T17:05:28.397Z,244.73
2023-03-02T17:06:28.400Z,246.10
2023-03-02T17:07:28.377Z,246.04
2023-03-02T17:08:28.379Z,244.02
2023-03-02T17:09:28.407Z,246.40
2023-03-02T17:10:28.323Z,245.35
2023-03-02T17:11:28.313Z,244.52
2023-03-02T17:12:28.301Z,245.56
2023-03-02T17:13:28.282Z,247.82
2023-03-02T17:14:28.281Z,242.85
2023-03-02T17:15:28.296Z,245.51